METAR stanice u blizini

 

LYBE - Beograd / Surčin, Srbija
Ažurirano: 16/09/2021 13:00
Vedro
Vedro
 Pravac vetra JJZ
Vetar: JJZ 13 km/h
Temperatura: 30°C
Tačka rose: 13°C
Vlažnost: 35%
Pritisak: 1016 hPa
Pregled: Vedro
Vidljivost: greater than 10 km
2021/09/16 11:00 LYBE 161100Z 20007KT 150V260 CAVOK 30/13 Q1016 NOSIG
LYBT - Beograd / Batajnica, Srbija
Ažurirano: 16/09/2021 13:00
Vedro
Vedro
 Pravac vetra J
Vetar: J 11 km/h
Temperatura: 30°C
Tačka rose: 13°C
Vlažnost: 35%
Pritisak: 1015 hPa
Pregled: Vedro
Vidljivost: greater than 10 km
2021/09/16 11:00 LYBT 161100Z 19006KT 110V240 CAVOK 30/13 Q1015 NOSIG
LYVR - Vršac, Srbija
Ažurirano: 16/09/2021 13:00
Vedro
Vedro
 Pravac vetra J
Vetar: J 7 km/h
Temperatura: 28°C
Tačka rose: 11°C
Vlažnost: 35%
Pritisak: 1016 hPa
Pregled: Vedro
Vidljivost: greater than 10 km
2021/09/16 11:00 LYVR 161100Z 18004KT 120V220 CAVOK 28/11 Q1016 NOSIG
 
LYKV - Lađevci, Srbija
Ažurirano: 16/09/2021 13:00
Vedro
Vedro
 Pravac vetra IJI
Vetar: IJI 6 km/h, Maks.: 24 km/h
Temperatura: 28°C
Tačka rose: 11°C
Vlažnost: 35%
Pritisak: 1017 hPa
Pregled: Vedro
Vidljivost: greater than 10 km
2021/09/16 11:00 LYKV 161100Z 12003G13KT CAVOK 28/11 Q1017 NOSIG
LYNI - Niš, Srbija
Ažurirano: 16/09/2021 13:00
Vedro
Vedro
 Pravac vetra JJZ
Vetar: JJZ 6 km/h
Temperatura: 28°C
Tačka rose: 9°C
Vlažnost: 30%
Pritisak: 1017 hPa
Pregled: Vedro
Vidljivost: greater than 10 km
2021/09/16 11:00 LYNI 161100Z 20003KT 120V270 CAVOK 28/09 Q1017 NOSIG
BKPR - Priština, Srbija
Ažurirano: 16/09/2021 13:00
Mostly Cloudy
Mostly Cloudy
 Pravac vetra varies
Vetar: varies 6 km/h
Temperatura: 27°C
Tačka rose: 12°C
Vlažnost: 39%
Pritisak: 1019 hPa
Oblaci: Mostly Cloudy
Vidljivost: 10 km
Cloud details: Few Clouds 2438 m
Mostly Cloudy 4572 m
2021/09/16 11:00 BKPR 161100Z VRB03KT 9999 FEW080 BKN150 27/12 Q1019 NOSIG
 
LHPP - Pecs / Pogany, Hungary
Ažurirano: 16/09/2021 12:45
Vedro
Vedro
 Pravac vetra Z
Vetar: Z 24 km/h
Temperatura: 27°C
Heat Index: 27°C
Tačka rose: 15°C
Vlažnost: 48%
Pritisak: 1015 hPa
Pregled: Vedro
Vidljivost: greater than 10 km
2021/09/16 10:45 LHPP 161045Z AUTO 26013KT 230V290 CAVOK 27/15 Q1015
LHUD - Szeged, Hungary
Ažurirano: 04/07/2019 01:45
NOT Current
Vedro
Vedro
 Pravac vetra S
Vetar: S 7 km/h
Temperatura: 18°C
Tačka rose: 13°C
Vlažnost: 73%
Pritisak: 1019 hPa
Pregled: Vedro
Vidljivost: greater than 10 km
2019/07/03 23:45 LHUD 032345Z 35004KT CAVOK 18/13 Q1019
LRTR - Timisoara, Romania
Ažurirano: 16/09/2021 13:00
Vedro
Vedro
 Pravac vetra J
Vetar: J 15 km/h
Temperatura: 28°C
Tačka rose: 11°C
Vlažnost: 35%
Pritisak: 1015 hPa
Pregled: Vedro
Vidljivost: greater than 10 km
2021/09/16 11:00 LRTR 161100Z 17008KT CAVOK 28/11 Q1015
 
LRCV - Craiova, Romania
Ažurirano: 16/09/2021 13:00
Vedro
Vedro
 Pravac vetra ZJZ
Vetar: ZJZ 7 km/h
Temperatura: 30°C
Tačka rose: 8°C
Vlažnost: 25%
Pritisak: 1016 hPa
Pregled: Vedro
Vidljivost: greater than 10 km
2021/09/16 11:00 LRCV 161100Z 24004KT 150V310 CAVOK 30/08 Q1016
LBSF - Sofia, Bulgaria
Ažurirano: 16/09/2021 13:00
Vedro
Vedro
 Pravac vetra varies
Vetar: varies 4 km/h
Temperatura: 26°C
Tačka rose: 10°C
Vlažnost: 37%
Pritisak: 1019 hPa
Pregled: Vedro
Vidljivost: greater than 10 km
2021/09/16 11:00 LBSF 161100Z VRB02KT CAVOK 26/10 Q1019 NOSIG
LWSK - Skoplje, Makedonija
Ažurirano: 16/09/2021 13:00
Partly Cloudy
Partly Cloudy
 Pravac vetra calm
Vetar: Tišina
Temperatura: 28°C
Tačka rose: 9°C
Vlažnost: 30%
Pritisak: 1018 hPa
Oblaci: Partly Cloudy
Vidljivost: 10 km
Cloud details: Few Clouds 1829 m
Partly Cloudy 3048 m
2021/09/16 11:00 LWSK 161100Z 00000KT 9999 FEW060 SCT100 28/09 Q1018 NOSIG
 
LYPG - Podgorica, Crna Gora
Ažurirano: 16/09/2021 13:00
Vedro
Vedro
 Pravac vetra J
Vetar: J 6 km/h
Temperatura: 29°C
Heat Index: 28°C
Tačka rose: 14°C
Vlažnost: 40%
Pritisak: 1018 hPa
Pregled: Vedro
Vidljivost: greater than 10 km
2021/09/16 11:00 LYPG 161100Z 17003KT 120V250 CAVOK 29/14 Q1018 NOSIG
LQSA - Sarajevo, Bosna i Hercegovina
Ažurirano: 16/09/2021 13:00
Partly Cloudy
Partly Cloudy
 Pravac vetra varies
Vetar: varies 4 km/h
Temperatura: 26°C
Tačka rose: 14°C
Vlažnost: 48%
Pritisak: 1019 hPa
Oblaci: Partly Cloudy
Vidljivost: 10 km
Cloud details: Partly Cloudy 1524 m
2021/09/16 11:00 LQSA 161100Z VRB02KT 9999 SCT050 26/14 Q1019 NOSIG
LDOS - Osijek, Hrvatksa
Ažurirano: 16/09/2021 13:00
Vedro
Vedro
 Pravac vetra Z
Vetar: Z 24 km/h
Temperatura: 31°C
Tačka rose: 15°C
Vlažnost: 38%
Pritisak: 1014 hPa
Pregled: Vedro
Vidljivost: greater than 10 km
2021/09/16 11:00 LDOS 161100Z 26013KT 220V290 CAVOK 31/15 Q1014